SBPB/PHB METAR and TAF weather

Enter ICAO airport designator
Station Type Date Time Source
SBPB METAR 2019/12/09 19:45 UTC NOAA

SBPB 091945Z 07013KT 9999 FEW020 30/24 Q1009


Station Type Date Time Source
SBPB Decoded METAR 2019/12/09 19:45 UTC NOAA

Parnaiba Aeroporto , Brazil (SBPB) 02-55S 041-45W
Dec 09, 2019 - 02:45 PM EST / 2019.12.09 1945 UTC
Wind: from the ENE (070 degrees) at 15 MPH (13 KT):0
Visibility: greater than 7 mile(s):0
Sky conditions: mostly clear
Temperature: 86 F (30 C)
Heat index: 95.0 F (35.0 C):1
Dew Point: 75 F (24 C)
Relative Humidity: 70%
Pressure (altimeter): 29.80 in. Hg (1009 hPa)
ob: SBPB 091945Z 07013KT 9999 FEW020 30/24 Q1009
cycle: 20

Station Type Date Time Source
SBPB TAF 2019/12/09 18:27 UTC NOAA

TAF SBPB 091600Z 0918/1006 04015KT 9999 FEW020 TX32/0918Z TN26/1006Z
RMK PFY

Example: see airport list